Terminal Aerodrome Forecast
Issued by NWS Albany, NY

Home | Current Version | Previous Version | Text Only | Print | Product List | Glossary On
Versions: 1 2 3 4 5 6 7 8 9 10 11 12 13 14 15 16 17 18 19 20 21 22 23 24 25 26 27 28
000
FTUS41 KALY 260917 AAB
TAFALB
TAF AMD
KALB 260917Z 2609/2706 00000KT 1SM BCFG BR OVC003
      TEMPO 2609/2611 00000KT 3SM BCFG BR BKN003
     FM261100 00000KT P6SM MIFG SCT035
     FM261500 18006KT P6SM SCT050=

USA.gov is the U.S. government's official web portal to all federal, state and local government web resources and services.